Time;durP1;ratioP1;P1;durP2;ratioP2;P2;SDS_P1;SDS_P2;PMS_P1;PMS_P2;Temp;Humidity;BMP_temperature;BMP_pressure;BME280_temperature;BME280_humidity;BME280_pressure;Samples;Min_cycle;Max_cycle;Signal;HPM_P1;HPM_P2
2022/09/12 00:00:36;;;;;;;;;;;20.00;66.30;;;;;;5095741;28;20363;-67
2022/09/12 00:03:02;;;;;;;;;;;20.00;66.30;;;;;;5129336;27;19923;-67
2022/09/12 00:05:27;;;;;;;;;;;20.00;66.20;;;;;;5095201;28;19964;-67
2022/09/12 00:07:53;;;;;;;;;;;20.00;66.20;;;;;;5129464;27;19919;-67
2022/09/12 00:10:18;;;;;;;;;;;20.00;66.30;;;;;;5095202;28;19926;-67
2022/09/12 00:12:44;;;;;;;;;;;20.00;66.30;;;;;;5094781;28;19928;-68
2022/09/12 00:15:09;;;;;;;;;;;20.00;66.30;;;;;;5113586;28;19919;-67
2022/09/12 00:17:36;;;;;;;;;;;20.00;66.30;;;;;;5095165;28;20006;-67
2022/09/12 00:20:03;;;;;;;;;;;20.00;66.30;;;;;;5113288;28;19919;-67
2022/09/12 00:22:28;;;;;;;;;;;20.00;66.30;;;;;;5095092;28;19959;-67
2022/09/12 00:24:54;;;;;;;;;;;20.00;66.20;;;;;;5095042;28;20383;-67
2022/09/12 00:27:19;;;;;;;;;;;20.00;66.20;;;;;;5113161;28;20010;-67
2022/09/12 00:29:45;;;;;;;;;;;19.90;66.20;;;;;;5094943;28;19919;-67
2022/09/12 00:32:10;;;;;;;;;;;19.90;66.20;;;;;;5095180;28;19965;-67
2022/09/12 00:34:36;;;;;;;;;;;19.90;66.10;;;;;;5094903;28;19924;-67
2022/09/12 00:37:02;;;;;;;;;;;20.00;66.30;;;;;;5094734;28;19965;-67
2022/09/12 00:39:27;;;;;;;;;;;19.90;66.20;;;;;;5078256;28;19919;-67
2022/09/12 00:41:53;;;;;;;;;;;19.90;66.10;;;;;;5094648;28;19974;-68
2022/09/12 00:49:48;;;;;;;;;;;19.90;66.20;;;;;;5089875;28;19919;-67
2022/09/12 00:52:16;;;;;;;;;;;19.90;66.10;;;;;;5088503;28;19964;-67
2022/09/12 00:54:45;;;;;;;;;;;19.90;66.10;;;;;;5088883;28;19920;-67
2022/09/12 00:57:12;;;;;;;;;;;19.90;66.10;;;;;;5088420;28;20384;-67
2022/09/12 00:59:42;;;;;;;;;;;19.90;66.10;;;;;;5088750;28;20058;-67
2022/09/12 01:02:08;;;;;;;;;;;19.80;66.10;;;;;;5088352;28;19959;-67
2022/09/12 01:04:35;;;;;;;;;;;19.90;66.20;;;;;;5088452;28;19994;-67
2022/09/12 01:07:02;;;;;;;;;;;19.90;66.10;;;;;;5089596;28;20280;-67
2022/09/12 01:09:28;;;;;;;;;;;19.90;66.20;;;;;;5088203;28;19928;-67
2022/09/12 01:11:53;;;;;;;;;;;19.90;66.10;;;;;;5088268;28;19970;-67
2022/09/12 01:14:19;;;;;;;;;;;19.80;66.10;;;;;;5089387;28;19982;-68
2022/09/12 01:16:46;;;;;;;;;;;19.90;66.20;;;;;;5088058;28;19920;-67
2022/09/12 01:32:49;;;;;;;;;;;19.80;66.10;;;;;;5110291;27;19912;-67
2022/09/12 01:35:22;;;;;;;;;;;19.80;66.10;;;;;;5109342;28;19919;-67
2022/09/12 01:43:19;;;;;;;;;;;19.80;66.10;;;;;;5110239;27;19913;-67
2022/09/12 01:45:46;;;;;;;;;;;19.90;66.10;;;;;;5091856;28;19920;-67
2022/09/12 01:53:37;;;;;;;;;;;19.80;66.10;;;;;;5089862;28;20376;-67
2022/09/12 01:56:07;;;;;;;;;;;19.80;66.10;;;;;;5088517;28;19924;-73
2022/09/12 01:58:37;;;;;;;;;;;19.80;66.10;;;;;;5088556;28;19920;-67
2022/09/12 02:01:07;;;;;;;;;;;19.80;66.10;;;;;;5071536;28;19934;-67
2022/09/12 02:03:43;;;;;;;;;;;19.70;66.00;;;;;;5088729;28;20376;-67
2022/09/12 02:06:14;;;;;;;;;;;19.80;66.10;;;;;;5088327;28;19926;-67
2022/09/12 02:08:49;;;;;;;;;;;19.70;66.00;;;;;;5088758;28;19921;-67
2022/09/12 02:11:15;;;;;;;;;;;19.80;66.10;;;;;;5088200;28;19920;-67
2022/09/12 02:13:42;;;;;;;;;;;19.80;66.00;;;;;;5088627;28;19978;-73
2022/09/12 02:16:10;;;;;;;;;;;19.70;66.00;;;;;;5088220;28;20368;-67
2022/09/12 02:18:38;;;;;;;;;;;19.80;66.00;;;;;;5088190;28;19924;-67
2022/09/12 02:21:04;;;;;;;;;;;19.70;66.00;;;;;;5088073;28;19935;-67
2022/09/12 02:23:30;;;;;;;;;;;19.70;65.90;;;;;;5088048;28;19927;-74
2022/09/12 02:25:59;;;;;;;;;;;19.70;66.00;;;;;;5089291;28;19924;-67
2022/09/12 02:28:28;;;;;;;;;;;19.80;66.00;;;;;;5089532;28;20316;-67
2022/09/12 02:30:59;;;;;;;;;;;19.70;65.90;;;;;;5089094;28;19927;-67
2022/09/12 02:33:31;;;;;;;;;;;19.80;66.00;;;;;;5087864;28;20403;-67
2022/09/12 02:36:20;;;;;;;;;;;19.70;65.90;;;;;;5089090;28;19943;-67
2022/09/12 02:38:46;;;;;;;;;;;19.70;65.90;;;;;;5089045;28;20372;-67
2022/09/12 02:41:14;;;;;;;;;;;19.70;65.90;;;;;;5087694;28;19921;-67
2022/09/12 02:43:40;;;;;;;;;;;19.70;65.90;;;;;;5087717;28;19929;-67
2022/09/12 02:46:07;;;;;;;;;;;19.70;65.90;;;;;;5087879;28;19924;-67
2022/09/12 02:48:34;;;;;;;;;;;19.70;65.90;;;;;;5087623;28;19920;-72
2022/09/12 02:51:01;;;;;;;;;;;19.70;65.90;;;;;;5087824;28;19927;-67
2022/09/12 02:53:27;;;;;;;;;;;19.70;65.90;;;;;;5108181;28;19931;-67
2022/09/12 02:55:52;;;;;;;;;;;19.70;65.80;;;;;;5109038;28;19927;-67
2022/09/12 02:58:22;;;;;;;;;;;19.70;65.90;;;;;;5090881;28;19920;-72
2022/09/12 03:00:50;;;;;;;;;;;19.70;65.90;;;;;;5090998;28;19920;-67
2022/09/12 03:03:36;;;;;;;;;;;19.70;66.20;;;;;;5086211;28;20402;-67
2022/09/12 03:06:04;;;;;;;;;;;19.70;65.80;;;;;;5077181;28;20378;-67
2022/09/12 03:11:30;;;;;;;;;;;19.70;65.90;;;;;;5089470;28;19912;-67
2022/09/12 03:19:38;;;;;;;;;;;19.70;65.80;;;;;;5110303;27;19912;-72
2022/09/12 03:22:10;;;;;;;;;;;19.60;65.70;;;;;;5108580;28;19966;-67
2022/09/12 03:24:37;;;;;;;;;;;19.70;65.80;;;;;;5109083;28;19921;-67
2022/09/12 03:27:08;;;;;;;;;;;19.60;65.70;;;;;;5108705;28;19973;-67
2022/09/12 03:29:35;;;;;;;;;;;19.70;65.80;;;;;;5108790;28;19920;-67
2022/09/12 03:32:00;;;;;;;;;;;19.70;65.80;;;;;;5108943;28;20006;-67
2022/09/12 03:34:26;;;;;;;;;;;19.60;65.70;;;;;;5108731;28;20029;-67
2022/09/12 03:36:54;;;;;;;;;;;19.70;65.80;;;;;;5109922;28;20019;-67
2022/09/12 03:39:20;;;;;;;;;;;19.60;65.70;;;;;;5108683;28;19920;-67
2022/09/12 03:41:45;;;;;;;;;;;19.70;65.80;;;;;;5108846;28;19966;-67
2022/09/12 03:44:11;;;;;;;;;;;19.70;65.80;;;;;;5108468;28;20295;-67
2022/09/12 03:46:36;;;;;;;;;;;19.70;65.70;;;;;;5108796;28;19927;-67
2022/09/12 03:49:02;;;;;;;;;;;19.70;65.70;;;;;;5108391;28;19919;-73
2022/09/12 03:51:27;;;;;;;;;;;19.60;65.60;;;;;;5108425;28;19920;-67
2022/09/12 03:53:53;;;;;;;;;;;19.60;65.60;;;;;;5108571;28;20041;-67
2022/09/12 03:56:19;;;;;;;;;;;19.60;65.60;;;;;;5109573;28;19920;-67
2022/09/12 03:58:44;;;;;;;;;;;19.60;65.60;;;;;;5108170;28;20032;-67
2022/09/12 04:01:11;;;;;;;;;;;19.60;65.60;;;;;;5109681;28;19930;-67
2022/09/12 04:03:38;;;;;;;;;;;19.60;65.60;;;;;;5108109;28;19978;-67
2022/09/12 04:06:03;;;;;;;;;;;19.60;65.60;;;;;;5108417;28;20296;-67
2022/09/12 04:08:29;;;;;;;;;;;19.60;65.60;;;;;;5142315;27;20075;-67
2022/09/12 04:11:01;;;;;;;;;;;19.60;65.60;;;;;;5108261;28;19920;-67
2022/09/12 04:13:26;;;;;;;;;;;19.60;65.60;;;;;;5107916;28;19927;-67
2022/09/12 04:15:56;;;;;;;;;;;19.60;66.40;;;;;;5108272;28;19924;-67
2022/09/12 04:18:22;;;;;;;;;;;19.60;65.60;;;;;;5107480;28;19931;-67
2022/09/12 04:20:47;;;;;;;;;;;19.60;65.60;;;;;;5107988;28;19920;-67
2022/09/12 04:23:13;;;;;;;;;;;19.60;65.60;;;;;;5109006;28;19920;-67
2022/09/12 04:25:38;;;;;;;;;;;19.60;65.60;;;;;;5141929;27;19950;-73
2022/09/12 04:28:04;;;;;;;;;;;19.60;65.60;;;;;;5108940;28;19946;-67
2022/09/12 04:30:30;;;;;;;;;;;19.60;65.60;;;;;;5129063;27;20102;-67
2022/09/12 04:32:55;;;;;;;;;;;19.50;65.50;;;;;;5095604;28;20360;-67
2022/09/12 04:35:21;;;;;;;;;;;19.60;65.60;;;;;;5093892;28;19920;-67
2022/09/12 04:37:46;;;;;;;;;;;19.60;65.60;;;;;;5094121;28;19934;-67
2022/09/12 04:40:12;;;;;;;;;;;19.50;65.50;;;;;;5094158;28;20288;-67
2022/09/12 04:42:37;;;;;;;;;;;19.50;65.50;;;;;;5094133;28;20275;-67
2022/09/12 04:45:05;;;;;;;;;;;19.50;65.50;;;;;;5093692;28;20397;-67
2022/09/12 04:47:30;;;;;;;;;;;19.60;65.50;;;;;;5093149;28;20046;-67
2022/09/12 04:49:56;;;;;;;;;;;19.50;65.50;;;;;;5093682;28;20015;-67
2022/09/12 04:52:21;;;;;;;;;;;19.50;65.50;;;;;;5093901;28;19920;-67
2022/09/12 04:54:47;;;;;;;;;;;19.50;65.50;;;;;;5093603;28;19927;-72
2022/09/12 04:57:12;;;;;;;;;;;19.50;65.50;;;;;;5093705;28;19935;-67
2022/09/12 04:59:38;;;;;;;;;;;19.50;65.40;;;;;;5093396;28;19920;-67
2022/09/12 05:02:04;;;;;;;;;;;19.50;65.50;;;;;;5093982;28;19930;-67
2022/09/12 05:04:30;;;;;;;;;;;19.50;65.40;;;;;;5094694;28;19924;-69
2022/09/12 05:06:56;;;;;;;;;;;19.50;65.40;;;;;;5094722;28;19935;-67
2022/09/12 05:09:21;;;;;;;;;;;19.50;65.50;;;;;;5093625;28;20253;-67
2022/09/12 05:11:47;;;;;;;;;;;19.50;65.40;;;;;;5094476;28;20291;-67
2022/09/12 05:14:12;;;;;;;;;;;19.50;65.40;;;;;;5093199;28;19920;-67
2022/09/12 05:16:38;;;;;;;;;;;19.50;65.40;;;;;;5094617;28;19920;-67
2022/09/12 05:19:03;;;;;;;;;;;19.50;65.30;;;;;;5090128;28;19928;-67
2022/09/12 05:21:29;;;;;;;;;;;19.60;65.30;;;;;;5090815;28;19948;-67
2022/09/12 05:23:56;;;;;;;;;;;19.50;65.10;;;;;;5092091;28;20010;-67
2022/09/12 05:26:21;;;;;;;;;;;19.60;65.30;;;;;;5092082;28;19920;-66
2022/09/12 05:28:48;;;;;;;;;;;19.70;65.20;;;;;;5090571;28;19927;-65
2022/09/12 05:31:18;;;;;;;;;;;19.70;65.10;;;;;;5074619;28;20383;-66
2022/09/12 05:33:45;;;;;;;;;;;19.80;65.20;;;;;;5092345;28;20299;-70
2022/09/12 05:36:13;;;;;;;;;;;19.80;65.10;;;;;;5091509;28;19924;-66
2022/09/12 05:38:38;;;;;;;;;;;19.80;65.00;;;;;;5091055;28;19931;-66
2022/09/12 05:41:09;;;;;;;;;;;19.80;65.00;;;;;;5090649;28;19920;-66
2022/09/12 05:43:35;;;;;;;;;;;19.80;64.90;;;;;;5091296;28;20299;-66
2022/09/12 05:46:01;;;;;;;;;;;19.90;64.90;;;;;;5093168;28;19942;-66
2022/09/12 05:48:27;;;;;;;;;;;19.90;64.80;;;;;;5089563;28;19931;-66
2022/09/12 05:51:01;;;;;;;;;;;19.90;64.70;;;;;;5089269;28;19998;-65
2022/09/12 05:53:28;;;;;;;;;;;19.90;64.70;;;;;;5089209;28;19943;-68
2022/09/12 05:56:13;;;;;;;;;;;19.90;64.70;;;;;;5086357;28;19920;-66
2022/09/12 05:58:41;;;;;;;;;;;20.00;64.80;;;;;;5078588;28;19924;-67
2022/09/12 06:01:08;;;;;;;;;;;20.00;64.70;;;;;;5087521;28;19920;-66
2022/09/12 06:03:34;;;;;;;;;;;20.00;64.70;;;;;;5084299;28;19920;-66
2022/09/12 06:06:01;;;;;;;;;;;20.00;64.60;;;;;;5058225;28;20224;-68
2022/09/12 06:08:27;;;;;;;;;;;20.00;64.60;;;;;;5087376;28;19931;-66
2022/09/12 06:10:57;;;;;;;;;;;20.10;64.60;;;;;;5085011;28;19920;-66
2022/09/12 06:13:22;;;;;;;;;;;20.10;64.50;;;;;;5080428;28;20485;-66
2022/09/12 06:15:48;;;;;;;;;;;20.10;64.50;;;;;;5085294;28;19932;-68
2022/09/12 06:18:13;;;;;;;;;;;20.10;64.50;;;;;;5087744;28;19924;-66
2022/09/12 06:20:39;;;;;;;;;;;20.10;64.50;;;;;;5099771;28;19970;-65
2022/09/12 06:23:04;;;;;;;;;;;20.10;64.50;;;;;;5087397;28;20254;-65
2022/09/12 06:25:30;;;;;;;;;;;20.10;64.50;;;;;;5089294;28;19961;-66
2022/09/12 06:27:55;;;;;;;;;;;20.20;64.60;;;;;;5070930;28;20026;-65
2022/09/12 06:30:21;;;;;;;;;;;20.20;64.60;;;;;;5057058;28;19924;-65
2022/09/12 06:32:46;;;;;;;;;;;20.20;64.60;;;;;;5069874;28;20539;-66
2022/09/12 06:35:12;;;;;;;;;;;20.20;64.50;;;;;;5100710;27;20003;-66
2022/09/12 06:37:38;;;;;;;;;;;20.20;64.40;;;;;;5072593;28;19954;-66
2022/09/12 06:40:03;;;;;;;;;;;20.20;64.40;;;;;;5067489;28;20057;-66
2022/09/12 06:42:29;;;;;;;;;;;20.20;64.40;;;;;;5073490;28;19946;-67
2022/09/12 06:44:54;;;;;;;;;;;20.20;64.40;;;;;;5069555;28;19924;-67
2022/09/12 06:47:20;;;;;;;;;;;20.30;64.70;;;;;;5072416;28;19977;-67
2022/09/12 06:49:45;;;;;;;;;;;20.20;64.70;;;;;;5074456;28;20433;-66
2022/09/12 06:52:11;;;;;;;;;;;20.30;65.00;;;;;;5106698;27;20427;-69
2022/09/12 06:54:36;;;;;;;;;;;20.30;65.10;;;;;;5075421;28;19928;-68
2022/09/12 06:57:02;;;;;;;;;;;20.30;65.00;;;;;;5073786;28;19920;-68
2022/09/12 06:59:28;;;;;;;;;;;20.30;64.90;;;;;;5100234;27;19921;-68
2022/09/12 07:01:53;;;;;;;;;;;20.30;64.90;;;;;;5070814;28;20663;-68
2022/09/12 07:04:19;;;;;;;;;;;20.40;65.00;;;;;;5066607;28;19924;-66
2022/09/12 07:06:44;;;;;;;;;;;20.40;64.90;;;;;;5064519;28;19928;-66
2022/09/12 07:09:12;;;;;;;;;;;20.50;65.20;;;;;;5061297;28;20006;-67
2022/09/12 07:11:38;;;;;;;;;;;20.50;65.20;;;;;;5069289;28;20086;-67
2022/09/12 07:14:05;;;;;;;;;;;20.50;65.10;;;;;;5098856;28;19935;-66
2022/09/12 07:16:31;;;;;;;;;;;20.60;65.30;;;;;;5070451;28;20015;-72
2022/09/12 07:18:57;;;;;;;;;;;20.60;65.40;;;;;;5070238;28;20560;-67
2022/09/12 07:21:23;;;;;;;;;;;20.60;65.50;;;;;;5071322;28;20726;-68
2022/09/12 07:23:50;;;;;;;;;;;20.60;66.10;;;;;;5068237;28;19946;-65
2022/09/12 07:26:16;;;;;;;;;;;20.70;65.60;;;;;;5065280;28;19925;-66
2022/09/12 07:28:42;;;;;;;;;;;20.70;65.70;;;;;;5070819;28;20460;-66
2022/09/12 07:31:09;;;;;;;;;;;20.70;65.60;;;;;;5065390;28;19924;-66
2022/09/12 07:33:35;;;;;;;;;;;20.70;66.00;;;;;;5066773;28;19920;-64
2022/09/12 07:36:02;;;;;;;;;;;20.70;65.90;;;;;;5100898;28;19931;-67
2022/09/12 07:38:28;;;;;;;;;;;20.70;65.90;;;;;;5068038;28;19928;-66
2022/09/12 07:40:53;;;;;;;;;;;20.70;65.90;;;;;;5067306;28;20288;-66
2022/09/12 07:43:19;;;;;;;;;;;20.80;65.90;;;;;;5065415;28;20502;-65
2022/09/12 07:45:45;;;;;;;;;;;20.80;66.20;;;;;;5098987;28;19924;-69
2022/09/12 07:48:11;;;;;;;;;;;20.80;66.00;;;;;;5065188;28;20508;-66
2022/09/12 07:50:36;;;;;;;;;;;20.80;65.90;;;;;;5099667;28;20009;-66
2022/09/12 07:53:03;;;;;;;;;;;20.80;66.00;;;;;;5074018;28;19924;-65
2022/09/12 07:55:29;;;;;;;;;;;20.90;65.90;;;;;;5067011;28;19924;-66
2022/09/12 07:57:54;;;;;;;;;;;20.90;65.90;;;;;;5068659;28;19951;-67
2022/09/12 08:00:20;;;;;;;;;;;20.80;66.40;;;;;;5071815;28;20299;-66
2022/09/12 08:02:50;;;;;;;;;;;20.90;65.80;;;;;;5071646;28;19924;-67
2022/09/12 08:05:16;;;;;;;;;;;20.90;65.90;;;;;;5066333;28;19936;-67
2022/09/12 08:07:41;;;;;;;;;;;20.90;66.10;;;;;;5069559;28;19929;-65
2022/09/12 08:10:07;;;;;;;;;;;21.00;66.00;;;;;;5069848;28;19924;-67
2022/09/12 08:12:33;;;;;;;;;;;21.00;66.40;;;;;;5076185;28;20194;-66
2022/09/12 08:14:59;;;;;;;;;;;21.10;66.50;;;;;;5070798;28;19964;-65
2022/09/12 08:17:25;;;;;;;;;;;21.10;66.50;;;;;;5071498;28;21743;-66
2022/09/12 08:19:51;;;;;;;;;;;21.10;66.20;;;;;;5069075;28;20477;-65
2022/09/12 08:22:20;;;;;;;;;;;21.10;66.20;;;;;;5071705;28;20015;-66
2022/09/12 08:24:46;;;;;;;;;;;21.00;66.10;;;;;;5073270;28;19985;-66
2022/09/12 08:27:12;;;;;;;;;;;21.00;66.00;;;;;;5075908;28;19928;-66
2022/09/12 08:29:37;;;;;;;;;;;21.10;66.10;;;;;;5071894;28;20023;-65
2022/09/12 08:32:03;;;;;;;;;;;21.10;66.00;;;;;;5069422;28;19928;-65
2022/09/12 08:34:28;;;;;;;;;;;21.10;65.80;;;;;;5075999;28;19928;-64
2022/09/12 08:36:54;;;;;;;;;;;21.20;65.90;;;;;;5070369;28;20322;-66
2022/09/12 08:39:20;;;;;;;;;;;21.10;65.90;;;;;;5072809;28;19985;-67
2022/09/12 08:41:47;;;;;;;;;;;21.20;66.00;;;;;;5068395;28;19930;-67
2022/09/12 08:44:33;;;;;;;;;;;21.20;66.70;;;;;;5076376;28;20244;-68
2022/09/12 08:50:02;;;;;;;;;;;21.10;66.00;;;;;;5041394;28;20612;-65
2022/09/12 08:55:18;;;;;;;;;;;21.20;66.30;;;;;;5088273;27;1867384;-65
2022/09/12 08:57:43;;;;;;;;;;;21.20;66.60;;;;;;5128614;27;19930;-65
2022/09/12 09:00:12;;;;;;;;;;;21.30;66.60;;;;;;5133884;27;19919;-64
2022/09/12 09:11:03;;;;;;;;;;;21.40;66.20;;;;;;5083516;27;1854470;-64
2022/09/12 09:16:35;;;;;;;;;;;21.40;66.40;;;;;;5109261;27;19942;-66
2022/09/12 09:19:03;;;;;;;;;;;21.50;66.40;;;;;;5109704;27;20464;-62
2022/09/12 09:21:31;;;;;;;;;;;21.50;66.20;;;;;;5114057;27;20294;-63
2022/09/12 09:24:02;;;;;;;;;;;21.50;66.10;;;;;;5118659;27;20382;-64
2022/09/12 09:26:31;;;;;;;;;;;21.60;66.10;;;;;;5120314;27;19929;-63
2022/09/12 09:29:01;;;;;;;;;;;21.60;66.20;;;;;;5132425;27;19928;-64
2022/09/12 09:31:29;;;;;;;;;;;21.50;66.10;;;;;;5119129;27;20040;-65
2022/09/12 09:33:54;;;;;;;;;;;21.60;65.90;;;;;;5114330;27;20398;-68
2022/09/12 09:36:23;;;;;;;;;;;21.60;66.00;;;;;;5134591;27;19930;-68
2022/09/12 09:41:52;;;;;;;;;;;21.60;65.90;;;;;;5075718;27;20295;-69
2022/09/12 09:44:18;;;;;;;;;;;21.60;65.80;;;;;;5087322;28;19933;-70
2022/09/12 09:46:43;;;;;;;;;;;21.60;65.90;;;;;;5052211;28;19947;-69
2022/09/12 09:49:11;;;;;;;;;;;21.70;66.10;;;;;;5053532;28;19935;-70
2022/09/12 09:51:38;;;;;;;;;;;21.80;66.10;;;;;;5051749;28;19929;-69
2022/09/12 09:56:59;;;;;;;;;;;21.80;65.90;;;;;;5094589;27;19920;-69
2022/09/12 09:59:28;;;;;;;;;;;21.80;66.00;;;;;;5065936;28;20275;-69
2022/09/12 10:01:56;;;;;;;;;;;21.90;66.00;;;;;;5075875;28;19920;-68
2022/09/12 10:04:24;;;;;;;;;;;21.90;66.30;;;;;;5074788;28;20034;-68
2022/09/12 10:06:50;;;;;;;;;;;22.00;65.90;;;;;;5074972;28;20090;-69
2022/09/12 10:09:17;;;;;;;;;;;22.00;66.10;;;;;;5072638;28;19924;-69
2022/09/12 10:11:44;;;;;;;;;;;22.00;65.90;;;;;;5106669;27;19985;-70
2022/09/12 10:14:30;;;;;;;;;;;22.00;65.90;;;;;;5080287;28;19924;-67
2022/09/12 10:16:57;;;;;;;;;;;22.00;66.00;;;;;;5109444;27;19928;-66
2022/09/12 10:19:31;;;;;;;;;;;22.10;66.10;;;;;;5090885;28;19924;-67
2022/09/12 10:21:57;;;;;;;;;;;22.10;66.20;;;;;;5108144;28;19984;-67
2022/09/12 10:24:42;;;;;;;;;;;22.20;66.10;;;;;;5073203;28;20359;-68
2022/09/12 10:29:54;;;;;;;;;;;22.20;65.80;;;;;;5054986;28;19925;-67
2022/09/12 10:32:40;;;;;;;;;;;22.30;65.50;;;;;;5065307;28;19929;-67
2022/09/12 10:35:15;;;;;;;;;;;22.30;65.40;;;;;;5052555;28;19925;-67
2022/09/12 10:37:48;;;;;;;;;;;22.30;65.30;;;;;;5065489;28;20605;-67
2022/09/12 10:40:33;;;;;;;;;;;22.30;65.10;;;;;;5053214;28;19928;-67
2022/09/12 10:42:59;;;;;;;;;;;22.30;65.00;;;;;;5069329;28;19925;-67
2022/09/12 10:45:27;;;;;;;;;;;22.30;65.40;;;;;;5069026;28;20285;-67
2022/09/12 10:47:54;;;;;;;;;;;22.30;65.40;;;;;;5070695;28;19931;-66
2022/09/12 10:56:03;;;;;;;;;;;22.40;65.30;;;;;;5150914;27;19915;-66
2022/09/12 11:04:23;;;;;;;;;;;22.40;65.60;;;;;;5088934;28;19916;-70
2022/09/12 11:07:08;;;;;;;;;;;22.50;65.60;;;;;;5053819;28;19991;-68
2022/09/12 11:09:44;;;;;;;;;;;22.50;65.80;;;;;;5064844;28;20021;-66
2022/09/12 11:12:30;;;;;;;;;;;22.50;65.80;;;;;;5056459;28;19920;-66
2022/09/12 11:20:30;;;;;;;;;;;22.50;66.00;;;;;;5077941;27;19927;-67
2022/09/12 11:25:58;;;;;;;;;;;22.50;65.80;;;;;;5072016;27;19923;-68
2022/09/12 11:34:08;;;;;;;;;;;22.50;65.70;;;;;;5145025;27;20333;-68
2022/09/12 11:36:40;;;;;;;;;;;22.50;65.70;;;;;;5117245;27;19927;-66
2022/09/12 11:42:14;;;;;;;;;;;22.60;65.60;;;;;;5067589;27;20300;-67
2022/09/12 11:44:44;;;;;;;;;;;22.60;65.60;;;;;;5086943;28;19924;-66
2022/09/12 11:47:11;;;;;;;;;;;22.60;65.50;;;;;;5071989;28;19925;-65
2022/09/12 11:49:39;;;;;;;;;;;22.60;65.00;;;;;;5046754;28;20832;-66
2022/09/12 11:52:24;;;;;;;;;;;22.60;63.00;;;;;;5047655;28;19950;-66
2022/09/12 11:55:00;;;;;;;;;;;22.60;62.90;;;;;;5050679;28;19925;-64
2022/09/12 11:57:30;;;;;;;;;;;22.60;63.00;;;;;;5079097;28;19925;-65
2022/09/12 11:59:59;;;;;;;;;;;22.60;63.30;;;;;;5050796;28;19932;-67
2022/09/12 12:02:26;;;;;;;;;;;22.50;62.40;;;;;;5047937;28;19921;-66
2022/09/12 12:05:13;;;;;;;;;;;22.50;63.00;;;;;;5048264;28;19928;-68
2022/09/12 12:07:40;;;;;;;;;;;22.50;63.40;;;;;;5051199;28;20420;-67
2022/09/12 12:10:20;;;;;;;;;;;22.60;63.40;;;;;;5052813;28;20262;-68
2022/09/12 12:12:46;;;;;;;;;;;22.50;62.70;;;;;;5056156;28;19986;-69
2022/09/12 12:15:13;;;;;;;;;;;22.60;61.70;;;;;;5055930;28;19954;-65
2022/09/12 12:17:39;;;;;;;;;;;22.60;60.80;;;;;;5046699;28;19931;-67
2022/09/12 12:20:05;;;;;;;;;;;22.60;61.40;;;;;;5045527;28;20115;-67
2022/09/12 12:22:30;;;;;;;;;;;22.70;61.00;;;;;;5046921;28;19960;-66
2022/09/12 12:25:02;;;;;;;;;;;22.70;62.70;;;;;;5048299;28;19969;-66
2022/09/12 12:27:47;;;;;;;;;;;22.70;61.90;;;;;;5085851;28;19937;-70
2022/09/12 12:36:03;;;;;;;;;;;22.80;60.90;;;;;;5084829;27;1850828;-71
2022/09/12 12:38:30;;;;;;;;;;;22.80;61.30;;;;;;5116685;27;19962;-67
2022/09/12 12:41:15;;;;;;;;;;;22.80;61.70;;;;;;5119315;27;19959;-65
2022/09/12 12:43:42;;;;;;;;;;;22.90;61.80;;;;;;5115034;27;19983;-67
2022/09/12 12:46:09;;;;;;;;;;;22.90;61.80;;;;;;5116644;27;19926;-66
2022/09/12 12:48:43;;;;;;;;;;;23.00;61.70;;;;;;5119413;27;19927;-66
2022/09/12 12:51:15;;;;;;;;;;;23.00;60.90;;;;;;5132952;27;19993;-66
2022/09/12 12:53:40;;;;;;;;;;;23.00;60.40;;;;;;5117170;27;19932;-70
2022/09/12 12:56:24;;;;;;;;;;;23.00;60.90;;;;;;5130073;27;19931;-65
2022/09/12 12:58:56;;;;;;;;;;;23.10;60.40;;;;;;5122620;27;20019;-69
2022/09/12 13:01:22;;;;;;;;;;;23.10;60.60;;;;;;5115849;27;21319;-67
2022/09/12 13:04:04;;;;;;;;;;;23.10;60.90;;;;;;5119358;27;19970;-66
2022/09/12 13:09:21;;;;;;;;;;;23.10;60.50;;;;;;5076473;28;19927;-66
2022/09/12 13:11:54;;;;;;;;;;;23.10;59.70;;;;;;5080297;28;19921;-66
2022/09/12 13:17:25;;;;;;;;;;;23.10;59.10;;;;;;5064597;28;19923;-67
2022/09/12 13:19:52;;;;;;;;;;;23.10;59.20;;;;;;5057840;28;19928;-71
2022/09/12 13:22:20;;;;;;;;;;;23.10;59.50;;;;;;5056783;28;19929;-66
2022/09/12 13:24:47;;;;;;;;;;;23.10;59.50;;;;;;5052137;28;20012;-65
2022/09/12 13:27:16;;;;;;;;;;;23.20;59.20;;;;;;5053824;28;20635;-66
2022/09/12 13:29:41;;;;;;;;;;;23.20;59.00;;;;;;5055399;28;20627;-66
2022/09/12 13:32:08;;;;;;;;;;;23.20;59.30;;;;;;5049562;28;19925;-67
2022/09/12 13:34:34;;;;;;;;;;;23.20;58.50;;;;;;5056956;28;19932;-66
2022/09/12 13:37:20;;;;;;;;;;;23.20;59.30;;;;;;5059460;28;19987;-69
2022/09/12 13:39:48;;;;;;;;;;;23.20;59.30;;;;;;5057531;28;19924;-65
2022/09/12 13:47:53;;;;;;;;;;;23.20;58.70;;;;;;5065337;28;19916;-65
2022/09/12 13:50:21;;;;;;;;;;;23.20;58.30;;;;;;5058629;28;19975;-65
2022/09/12 13:52:51;;;;;;;;;;;23.20;58.30;;;;;;5053071;28;19955;-66
2022/09/12 13:55:28;;;;;;;;;;;23.20;58.40;;;;;;5052602;28;19928;-66
2022/09/12 13:57:55;;;;;;;;;;;23.20;58.50;;;;;;5055488;28;19927;-66
2022/09/12 14:00:21;;;;;;;;;;;23.10;58.60;;;;;;5065903;28;19990;-67
2022/09/12 14:02:47;;;;;;;;;;;23.10;59.10;;;;;;5062423;28;20532;-68
2022/09/12 14:05:18;;;;;;;;;;;23.20;59.80;;;;;;5057446;28;19931;-68
2022/09/12 14:10:33;;;;;;;;;;;23.20;59.50;;;;;;5106954;27;19918;-66
2022/09/12 14:13:01;;;;;;;;;;;23.30;60.10;;;;;;5104587;28;19920;-65
2022/09/12 14:15:28;;;;;;;;;;;23.20;59.40;;;;;;5104516;28;20275;-65
2022/09/12 14:18:00;;;;;;;;;;;23.30;59.20;;;;;;5100911;28;19977;-64
2022/09/12 14:20:31;;;;;;;;;;;23.30;58.70;;;;;;5130048;27;19970;-63
2022/09/12 14:23:08;;;;;;;;;;;23.30;57.90;;;;;;5103466;28;20257;-64
2022/09/12 14:25:36;;;;;;;;;;;23.30;58.20;;;;;;5102538;28;20334;-63
2022/09/12 14:28:02;;;;;;;;;;;23.30;57.90;;;;;;5102132;28;19951;-64
2022/09/12 14:30:30;;;;;;;;;;;23.30;57.80;;;;;;5102657;28;20841;-65
2022/09/12 14:36:05;;;;;;;;;;;23.30;58.30;;;;;;5111908;27;1854382;-65
2022/09/12 14:38:36;;;;;;;;;;;23.40;58.70;;;;;;5156525;27;20037;-70
2022/09/12 14:41:05;;;;;;;;;;;23.40;58.60;;;;;;5151798;27;19919;-68
2022/09/12 14:43:32;;;;;;;;;;;23.40;58.20;;;;;;5153942;27;19941;-70
2022/09/12 14:45:59;;;;;;;;;;;23.50;58.80;;;;;;5156486;27;20263;-72
2022/09/12 14:48:27;;;;;;;;;;;23.50;58.40;;;;;;5140117;27;20384;-71
2022/09/12 14:50:52;;;;;;;;;;;23.50;58.20;;;;;;5153051;27;19926;-71
2022/09/12 14:58:37;;;;;;;;;;;23.40;59.20;;;;;;5091095;27;1862859;-68
2022/09/12 15:06:24;;;;;;;;;;;23.50;60.00;;;;;;5107899;27;1861403;-67
2022/09/12 15:08:51;;;;;;;;;;;23.50;60.20;;;;;;5151224;27;19927;-67
2022/09/12 15:11:17;;;;;;;;;;;23.50;60.30;;;;;;5151720;27;20026;-68
2022/09/12 15:13:42;;;;;;;;;;;23.50;60.40;;;;;;5146884;27;19927;-68
2022/09/12 15:16:08;;;;;;;;;;;23.50;60.50;;;;;;5147843;27;20414;-70
2022/09/12 15:18:34;;;;;;;;;;;23.50;60.60;;;;;;5151951;27;19923;-67
2022/09/12 15:21:00;;;;;;;;;;;23.50;60.60;;;;;;5150011;27;20358;-75
2022/09/12 15:23:29;;;;;;;;;;;23.50;60.60;;;;;;5151759;27;19927;-69
2022/09/12 15:25:55;;;;;;;;;;;23.50;60.70;;;;;;5151616;27;19976;-68
2022/09/12 15:28:22;;;;;;;;;;;23.40;60.50;;;;;;5151709;27;19919;-68
2022/09/12 15:30:50;;;;;;;;;;;23.40;60.30;;;;;;5152604;27;19919;-68
2022/09/12 15:33:16;;;;;;;;;;;23.40;60.40;;;;;;5151879;27;19926;-68
2022/09/12 15:35:42;;;;;;;;;;;23.30;60.50;;;;;;5151087;27;19923;-68
2022/09/12 15:38:07;;;;;;;;;;;23.30;60.60;;;;;;5152316;27;20405;-68
2022/09/12 15:40:32;;;;;;;;;;;23.20;60.70;;;;;;5152716;27;19926;-68
2022/09/12 15:42:58;;;;;;;;;;;23.20;60.80;;;;;;5152702;27;19919;-68
2022/09/12 15:45:26;;;;;;;;;;;23.10;60.80;;;;;;5152464;27;19930;-68
2022/09/12 15:47:52;;;;;;;;;;;23.10;60.90;;;;;;5151998;27;19919;-68
2022/09/12 15:50:18;;;;;;;;;;;23.00;60.90;;;;;;5169829;27;19919;-68
2022/09/12 15:52:44;;;;;;;;;;;23.00;60.90;;;;;;5151844;27;19919;-68
2022/09/12 15:55:14;;;;;;;;;;;23.00;61.00;;;;;;5170306;27;19918;-68
2022/09/12 15:57:40;;;;;;;;;;;22.90;61.00;;;;;;5151584;27;20014;-68
2022/09/12 16:00:05;;;;;;;;;;;22.90;61.10;;;;;;5170903;27;20382;-68
2022/09/12 16:02:31;;;;;;;;;;;22.90;61.20;;;;;;5152355;27;20009;-68
2022/09/12 16:04:56;;;;;;;;;;;22.90;61.20;;;;;;5152034;27;20002;-68
2022/09/12 16:07:22;;;;;;;;;;;22.80;61.20;;;;;;5151659;27;19945;-68
2022/09/12 16:09:48;;;;;;;;;;;22.80;61.20;;;;;;5152299;27;20009;-68
2022/09/12 16:12:14;;;;;;;;;;;22.80;61.30;;;;;;5170587;27;19931;-68
2022/09/12 16:14:40;;;;;;;;;;;22.80;61.40;;;;;;5167500;27;19924;-68
2022/09/12 16:17:05;;;;;;;;;;;22.80;61.50;;;;;;5128003;27;19919;-68
2022/09/12 16:19:31;;;;;;;;;;;22.80;61.50;;;;;;5151836;27;19926;-68
2022/09/12 16:21:56;;;;;;;;;;;22.70;61.50;;;;;;5118443;27;19919;-68
2022/09/12 16:24:22;;;;;;;;;;;22.70;61.50;;;;;;5130483;27;19930;-67
2022/09/12 16:26:47;;;;;;;;;;;22.70;61.60;;;;;;5156003;27;19919;-68